Time;durP1;ratioP1;P1;durP2;ratioP2;P2;SDS_P1;SDS_P2;PMS_P1;PMS_P2;Temp;Humidity;BMP_temperature;BMP_pressure;BME280_temperature;BME280_humidity;BME280_pressure;Samples;Min_cycle;Max_cycle;Signal;HPM_P1;HPM_P2
2021/06/23 00:02:24;;;;;;;;;;;;;;;-144.31;82.47;74103.84;5054929;28;19924;-70
2021/06/23 00:04:50;;;;;;;;;;;;;;;-144.31;82.35;74109.84;5080929;28;19942;-71
2021/06/23 00:07:15;;;;;;;;;;;;;;;-144.31;82.23;74121.81;5038183;28;19955;-72
2021/06/23 00:09:43;;;;;;;;;;;;;;;-144.31;82.04;74123.81;5059745;28;19924;-71
2021/06/23 00:12:15;;;;;;;;;;;;;;;-144.31;82.01;74131.81;5056296;28;20071;-71
2021/06/23 00:14:41;;;;;;;;;;;;;;;-144.31;81.91;74141.78;5037747;28;20007;-72
2021/06/23 00:17:06;;;;;;;;;;;;;;;-144.31;81.87;74139.78;5058998;28;20010;-71
2021/06/23 00:19:31;;;;;;;;;;;;;;;-144.31;81.85;74141.78;5055750;28;19921;-71
2021/06/23 00:21:57;;;;;;;;;;;;;;;-144.31;81.69;74137.78;5058983;28;19942;-72
2021/06/23 00:24:22;;;;;;;;;;;;;;;-144.31;81.52;74135.78;5055030;28;19924;-71
2021/06/23 00:26:47;;;;;;;;;;;;;;;-144.31;81.39;74141.78;5048844;28;20410;-71
2021/06/23 00:29:13;;;;;;;;;;;;;;;-144.31;81.25;74147.78;5027504;28;19971;-71
2021/06/23 00:31:38;;;;;;;;;;;;;;;-144.31;81.05;74143.78;5035942;28;19927;-71
2021/06/23 00:34:04;;;;;;;;;;;;;;;-144.31;80.94;74147.78;5057461;28;20014;-71
2021/06/23 00:36:30;;;;;;;;;;;;;;;-144.31;80.81;74151.78;5043355;28;19936;-70
2021/06/23 00:38:55;;;;;;;;;;;;;;;-144.31;80.77;74147.78;5057838;28;19988;-71
2021/06/23 00:41:21;;;;;;;;;;;;;;;-144.31;80.59;74147.78;5038453;28;19962;-71
2021/06/23 00:43:50;;;;;;;;;;;;;;;-144.31;80.42;74139.78;5039904;28;20461;-70
2021/06/23 00:46:16;;;;;;;;;;;;;;;-144.31;79.69;74137.78;5042750;28;20333;-70
2021/06/23 00:48:42;;;;;;;;;;;;;;;-144.31;79.27;74135.78;5039882;28;19928;-71
2021/06/23 00:51:11;;;;;;;;;;;;;;;-144.31;79.28;74131.81;5043893;28;19932;-71
2021/06/23 00:53:54;;;;;;;;;;;;;;;-144.31;79.32;74131.81;5041012;28;19924;-70
2021/06/23 00:56:27;;;;;;;;;;;;;;;-144.31;79.27;74135.78;5061366;28;20266;-71
2021/06/23 00:58:53;;;;;;;;;;;;;;;-144.31;78.97;74135.78;5040939;28;19928;-71
2021/06/23 01:01:19;;;;;;;;;;;;;;;-144.31;78.94;74129.81;5077740;28;20453;-70
2021/06/23 01:03:44;;;;;;;;;;;;;;;-144.31;78.88;74129.81;5041345;28;20327;-70
2021/06/23 01:06:11;;;;;;;;;;;;;;;-144.31;78.78;74131.81;5035728;28;19921;-71
2021/06/23 01:08:37;;;;;;;;;;;;;;;-144.31;78.79;74141.78;5015319;28;19928;-71
2021/06/23 01:11:06;;;;;;;;;;;;;;;-144.31;78.73;74133.78;5071496;28;20289;-71
2021/06/23 01:13:37;;;;;;;;;;;;;;;-144.31;78.56;74129.81;5042729;28;19966;-71
2021/06/23 01:16:08;;;;;;;;;;;;;;;-144.31;78.38;74127.81;5044390;28;19916;-71
2021/06/23 01:18:35;;;;;;;;;;;;;;;-144.31;78.27;74127.81;5040343;28;19920;-70
2021/06/23 01:21:02;;;;;;;;;;;;;;;-144.31;78.15;74127.81;5062062;28;19964;-71
2021/06/23 01:23:27;;;;;;;;;;;;;;;-144.31;78.16;74135.78;5043752;28;20373;-70
2021/06/23 01:25:53;;;;;;;;;;;;;;;-144.31;78.28;74147.78;5073402;28;19921;-69
2021/06/23 01:28:19;;;;;;;;;;;;;;;-144.31;78.33;74155.75;5042938;28;19920;-71
2021/06/23 01:30:56;;;;;;;;;;;;;;;-144.31;78.33;74157.75;5040322;28;20305;-71
2021/06/23 01:33:32;;;;;;;;;;;;;;;-144.31;78.20;74159.75;5060795;28;19926;-70
2021/06/23 01:35:58;;;;;;;;;;;;;;;-144.31;78.05;74159.75;5059172;28;20223;-70
2021/06/23 01:38:25;;;;;;;;;;;;;;;-144.31;77.81;74155.75;5043035;28;19976;-71
2021/06/23 01:40:52;;;;;;;;;;;;;;;-144.31;77.53;74159.75;5042798;28;20436;-71
2021/06/23 01:43:18;;;;;;;;;;;;;;;-144.31;77.29;74155.75;5040532;28;19925;-71
2021/06/23 01:45:47;;;;;;;;;;;;;;;-144.31;76.96;74155.75;5043435;28;20019;-71
2021/06/23 01:48:18;;;;;;;;;;;;;;;-144.31;76.65;74153.75;5058711;28;19935;-71
2021/06/23 01:50:54;;;;;;;;;;;;;;;-144.31;76.06;74159.75;5043483;28;20313;-71
2021/06/23 01:53:21;;;;;;;;;;;;;;;-144.31;75.55;74161.75;5042167;28;19928;-71
2021/06/23 01:55:48;;;;;;;;;;;;;;;-144.31;75.20;74157.75;5036104;28;20622;-71
2021/06/23 01:58:14;;;;;;;;;;;;;;;-144.31;74.91;74151.78;5032261;28;20400;-70
2021/06/23 02:01:11;;;;;;;;;;;;;;;-144.31;74.72;74139.78;5034697;28;19920;-71
2021/06/23 02:03:45;;;;;;;;;;;;;;;-144.31;74.66;74153.75;5052209;28;19971;-71
2021/06/23 02:06:35;;;;;;;;;;;;;;;-144.31;74.53;74153.75;5024084;28;19928;-70
2021/06/23 02:09:11;;;;;;;;;;;;;;;-144.31;74.42;74161.75;5005457;28;19943;-71
2021/06/23 02:11:48;;;;;;;;;;;;;;;-144.31;74.12;74173.72;5057232;28;20297;-71
2021/06/23 02:14:22;;;;;;;;;;;;;;;-144.31;73.96;74185.72;5035942;28;19932;-70
2021/06/23 02:16:54;;;;;;;;;;;;;;;-144.31;73.70;74179.72;5025608;28;19970;-71
2021/06/23 02:19:23;;;;;;;;;;;;;;;-144.31;73.50;74175.72;5041472;28;20393;-72
2021/06/23 02:22:17;;;;;;;;;;;;;;;-144.31;73.35;74183.72;5057968;28;20008;-71
2021/06/23 02:24:50;;;;;;;;;;;;;;;-144.31;73.14;74177.72;5040690;28;20122;-71
2021/06/23 02:27:26;;;;;;;;;;;;;;;-144.31;72.98;74175.72;5042774;28;20014;-71
2021/06/23 02:29:55;;;;;;;;;;;;;;;-144.31;72.84;74175.72;5073076;28;20295;-71
2021/06/23 02:32:24;;;;;;;;;;;;;;;-144.31;72.43;74175.72;5060627;28;19927;-71
2021/06/23 02:34:54;;;;;;;;;;;;;;;-144.31;72.28;74177.72;5038701;28;20011;-71
2021/06/23 02:37:28;;;;;;;;;;;;;;;-144.31;72.12;74179.72;5038246;28;19928;-71
2021/06/23 02:39:54;;;;;;;;;;;;;;;-144.31;72.02;74191.69;5040135;28;20600;-71
2021/06/23 02:42:20;;;;;;;;;;;;;;;-144.31;71.91;74199.69;5041437;28;19924;-71
2021/06/23 02:44:46;;;;;;;;;;;;;;;-144.31;71.85;74209.66;5038379;28;19916;-71
2021/06/23 02:47:16;;;;;;;;;;;;;;;-144.31;71.82;74223.66;5049315;28;19924;-71
2021/06/23 02:49:54;;;;;;;;;;;;;;;-144.31;71.76;74243.63;5023941;28;19921;-71
2021/06/23 02:52:23;;;;;;;;;;;;;;;-144.31;71.68;74245.59;5023875;28;19921;-71
2021/06/23 02:54:49;;;;;;;;;;;;;;;-144.31;71.60;74241.63;5040676;28;19927;-71
2021/06/23 02:57:34;;;;;;;;;;;;;;;-144.31;71.54;74251.59;5021785;28;19921;-71
2021/06/23 03:00:01;;;;;;;;;;;;;;;-144.31;71.48;74247.59;5041636;28;19923;-71
2021/06/23 03:02:30;;;;;;;;;;;;;;;-144.31;71.41;74251.59;5038861;28;20054;-71
2021/06/23 03:04:56;;;;;;;;;;;;;;;-144.31;71.31;74245.59;5042058;28;19942;-71
2021/06/23 03:07:22;;;;;;;;;;;;;;;-144.31;71.22;74237.63;5071818;28;19921;-71
2021/06/23 03:10:07;;;;;;;;;;;;;;;-144.31;71.18;74247.59;5041924;28;19920;-71
2021/06/23 03:12:53;;;;;;;;;;;;;;;-144.31;71.15;74257.59;5056326;28;20266;-72
2021/06/23 03:15:38;;;;;;;;;;;;;;;-144.31;71.08;74257.59;5059543;28;19921;-71
2021/06/23 03:18:18;;;;;;;;;;;;;;;-144.31;70.99;74263.56;5039193;28;19927;-71
2021/06/23 03:20:47;;;;;;;;;;;;;;;-144.31;70.94;74263.56;5058882;28;20374;-71
2021/06/23 03:23:12;;;;;;;;;;;;;;;-144.31;70.86;74267.56;5055591;28;19920;-71
2021/06/23 03:25:38;;;;;;;;;;;;;;;-144.31;70.84;74273.56;5038444;28;19920;-71
2021/06/23 03:28:05;;;;;;;;;;;;;;;-144.31;70.83;74279.56;5042461;28;20035;-71
2021/06/23 03:30:33;;;;;;;;;;;;;;;-144.31;70.80;74285.53;5038545;28;19968;-72
2021/06/23 03:32:59;;;;;;;;;;;;;;;-144.31;70.75;74283.53;5041634;28;20007;-71
2021/06/23 03:35:25;;;;;;;;;;;;;;;-144.31;70.72;74281.56;5059817;28;20425;-71
2021/06/23 03:37:52;;;;;;;;;;;;;;;-144.31;70.72;74281.56;5034295;28;19936;-71
2021/06/23 03:40:19;;;;;;;;;;;;;;;-144.31;70.70;74279.56;5046300;28;19927;-71
2021/06/23 03:42:45;;;;;;;;;;;;;;;-144.31;70.69;74281.56;5034393;28;19943;-72
2021/06/23 03:45:12;;;;;;;;;;;;;;;-144.31;70.70;74283.53;5037644;28;19920;-71
2021/06/23 03:47:37;;;;;;;;;;;;;;;-144.31;70.74;74299.53;5059436;28;19924;-71
2021/06/23 03:50:06;;;;;;;;;;;;;;;-144.31;70.75;74307.50;5022142;28;19924;-69
2021/06/23 03:52:32;;;;;;;;;;;;;;;-144.31;70.75;74319.50;5040647;28;19925;-71
2021/06/23 03:54:58;;;;;;;;;;;;;;;-144.31;70.72;74319.50;5071474;28;20401;-71
2021/06/23 03:57:26;;;;;;;;;;;;;;;-144.31;70.73;74337.47;5040775;28;19942;-71
2021/06/23 03:59:52;;;;;;;;;;;;;;;-144.31;70.75;74341.44;5039050;28;20015;-71
2021/06/23 04:02:18;;;;;;;;;;;;;;;-144.31;70.77;74351.44;5037430;28;20027;-71
2021/06/23 04:04:47;;;;;;;;;;;;;;;-144.31;70.79;74357.44;5039990;28;19916;-70
2021/06/23 04:07:26;;;;;;;;;;;;;;;-144.31;70.78;74347.44;5055668;28;20294;-71
2021/06/23 04:09:52;;;;;;;;;;;;;;;-144.31;70.75;74347.44;5041309;28;19920;-72
2021/06/23 04:12:23;;;;;;;;;;;;;;;-144.31;70.79;74347.44;5037744;28;19920;-71
2021/06/23 04:14:50;;;;;;;;;;;;;;;-144.31;70.83;74353.44;5073097;28;19920;-71
2021/06/23 04:17:16;;;;;;;;;;;;;;;-144.31;70.91;74359.41;5049288;28;19927;-70
2021/06/23 04:19:42;;;;;;;;;;;;;;;-144.31;70.96;74357.44;5046992;28;19917;-71
2021/06/23 04:22:13;;;;;;;;;;;;;;;-144.31;71.03;74363.41;5037287;28;19917;-72
2021/06/23 04:24:41;;;;;;;;;;;;;;;-144.31;71.10;74361.41;5038885;28;19925;-72
2021/06/23 04:27:09;;;;;;;;;;;;;;;-144.31;71.14;74357.44;5028389;28;19916;-71
2021/06/23 04:29:37;;;;;;;;;;;;;;;-144.31;71.19;74341.44;5041847;28;19928;-71
2021/06/23 04:32:04;;;;;;;;;;;;;;;-144.31;71.25;74343.44;5044265;28;19950;-71
2021/06/23 04:34:30;;;;;;;;;;;;;;;-144.31;71.31;74337.47;5041489;28;19917;-73
2021/06/23 04:37:07;;;;;;;;;;;;;;;-144.31;71.38;74333.47;5043163;28;20308;-72
2021/06/23 04:39:33;;;;;;;;;;;;;;;-144.31;71.44;74323.47;5042024;28;19917;-70
2021/06/23 04:42:07;;;;;;;;;;;;;;;-144.31;71.57;74329.47;5043317;28;19947;-71
2021/06/23 04:44:36;;;;;;;;;;;;;;;-144.31;71.68;74323.47;5042511;28;19928;-71
2021/06/23 04:47:02;;;;;;;;;;;;;;;-144.31;71.80;74319.50;5042948;28;19920;-71
2021/06/23 04:49:28;;;;;;;;;;;;;;;-144.31;71.87;74299.53;5059720;28;19928;-72
2021/06/23 04:52:14;;;;;;;;;;;;;;;-144.31;71.98;74283.53;5038535;28;19924;-71
2021/06/23 04:54:40;;;;;;;;;;;;;;;-144.31;72.09;74259.59;5044651;28;19924;-71
2021/06/23 04:57:08;;;;;;;;;;;;;;;-144.31;72.26;74241.63;5059176;28;20069;-71
2021/06/23 04:59:34;;;;;;;;;;;;;;;-144.31;72.43;74221.66;5078448;28;19997;-71
2021/06/23 05:01:59;;;;;;;;;;;;;;;-144.31;72.64;74219.66;5055125;28;20029;-71
2021/06/23 05:04:25;;;;;;;;;;;;;;;-144.31;72.80;74215.66;5074665;28;20272;-72
2021/06/23 05:06:50;;;;;;;;;;;;;;;-144.31;73.00;74211.66;5060855;28;19931;-72
2021/06/23 05:09:16;;;;;;;;;;;;;;;-144.31;73.17;74215.66;5074550;28;19975;-72
2021/06/23 05:11:41;;;;;;;;;;;;;;;-144.31;73.42;74207.69;5059102;28;20298;-71
2021/06/23 05:14:08;;;;;;;;;;;;;;;-144.31;73.67;74185.72;5043483;28;19974;-71
2021/06/23 05:16:35;;;;;;;;;;;;;;;-144.31;74.06;74153.75;5063788;28;20439;-71
2021/06/23 05:19:01;;;;;;;;;;;;;;;-144.31;74.51;74143.78;5040920;28;20384;-71
2021/06/23 05:21:26;;;;;;;;;;;;;;;-144.31;75.25;74143.78;5062153;28;19920;-71
2021/06/23 05:23:54;;;;;;;;;;;;;;;-144.31;75.91;74117.81;5060615;28;19920;-72
2021/06/23 05:26:19;;;;;;;;;;;;;;;-144.31;76.56;74085.88;5059277;28;19921;-71
2021/06/23 05:28:45;;;;;;;;;;;;;;;-144.31;77.31;74067.91;5042901;28;19927;-71
2021/06/23 05:31:12;;;;;;;;;;;;;;;-144.31;78.02;74057.94;5057873;28;19921;-71
2021/06/23 05:33:38;;;;;;;;;;;;;;;-144.31;78.79;74055.94;5060996;28;19921;-71
2021/06/23 05:36:03;;;;;;;;;;;;;;;-144.31;79.53;74049.94;5057959;28;20341;-71
2021/06/23 05:38:29;;;;;;;;;;;;;;;-144.31;80.25;74043.94;5027125;28;19920;-72
2021/06/23 05:40:54;;;;;;;;;;;;;;;-144.31;81.03;74039.97;5056762;28;19917;-72
2021/06/23 05:43:19;;;;;;;;;;;;;;;-144.31;81.64;74035.97;5057624;28;20262;-71
2021/06/23 05:45:45;;;;;;;;;;;;;;;-144.31;82.55;74033.97;5061002;28;19928;-71
2021/06/23 05:48:10;;;;;;;;;;;;;;;-144.31;83.43;74010.00;5058328;28;19920;-71
2021/06/23 05:50:36;;;;;;;;;;;;;;;-144.31;84.17;73992.03;5057592;28;19982;-71
2021/06/23 05:53:03;;;;;;;;;;;;;;;-144.31;85.13;73976.06;5040221;28;19974;-71
2021/06/23 05:55:28;;;;;;;;;;;;;;;-144.31;86.24;73946.13;5056820;28;19924;-70
2021/06/23 05:57:55;;;;;;;;;;;;;;;-144.31;87.29;73936.13;5052494;28;20394;-71
2021/06/23 06:00:21;;;;;;;;;;;;;;;-144.31;88.74;73934.16;5047775;28;19924;-72
2021/06/23 06:02:47;;;;;;;;;;;;;;;-144.31;90.52;73922.16;5041412;28;19974;-74
2021/06/23 06:05:15;;;;;;;;;;;;;;;-144.31;92.80;73912.19;5042072;28;19948;-72
2021/06/23 06:07:41;;;;;;;;;;;;;;;-144.31;94.90;73894.22;5039629;28;20371;-71
2021/06/23 06:10:06;;;;;;;;;;;;;;;-144.31;97.95;73870.25;5049120;28;19939;-72
2021/06/23 06:12:32;;;;;;;;;;;;;;;-144.31;100.00;73858.28;5047702;28;20359;-72
2021/06/23 06:14:57;;;;;;;;;;;;;;;-144.31;100.00;73832.31;5049767;28;20015;-72
2021/06/23 06:17:25;;;;;;;;;;;;;;;-144.31;100.00;73820.34;5049489;28;19921;-70
2021/06/23 06:19:50;;;;;;;;;;;;;;;-144.31;100.00;73810.38;5057950;28;19981;-72
2021/06/23 06:22:16;;;;;;;;;;;;;;;-144.31;100.00;73776.41;5043158;28;19917;-71
2021/06/23 06:24:42;;;;;;;;;;;;;;;-144.31;100.00;73738.50;5032904;28;20387;-71
2021/06/23 06:27:08;;;;;;;;;;;;;;;-144.31;100.00;73708.53;5056202;28;20317;-71
2021/06/23 06:29:33;;;;;;;;;;;;;;;-144.31;100.00;73744.47;5037092;28;19928;-71
2021/06/23 06:31:58;;;;;;;;;;;;;;;-144.31;100.00;73746.47;5058482;28;20180;-72
2021/06/23 06:34:24;;;;;;;;;;;;;;;-144.31;100.00;73598.75;5055827;28;20371;-72
2021/06/23 06:36:49;;;;;;;;;;;;;;;-144.31;100.00;73528.88;5029316;28;20413;-72
2021/06/23 06:39:14;;;;;;;;;;;;;;;-144.31;100.00;73552.84;5046721;28;19921;-72
2021/06/23 06:41:40;;;;;;;;;;;;;;;-144.31;100.00;73510.91;5031157;28;20597;-71
2021/06/23 06:44:07;;;;;;;;;;;;;;;-144.31;100.00;73560.81;5029720;28;19936;-72
2021/06/23 06:46:33;;;;;;;;;;;;;;;-144.31;100.00;73574.78;5038381;28;19920;-72
2021/06/23 06:48:58;;;;;;;;;;;;;;;-144.31;100.00;73564.81;5053154;28;19928;-72
2021/06/23 06:51:24;;;;;;;;;;;;;;;-144.31;100.00;73550.84;5047322;28;20082;-71
2021/06/23 06:53:49;;;;;;;;;;;;;;;-144.31;100.00;73514.91;5032203;28;20317;-70
2021/06/23 06:56:16;;;;;;;;;;;;;;;-144.31;100.00;73482.97;5044274;28;19959;-70
2021/06/23 06:58:41;;;;;;;;;;;;;;;-144.31;100.00;73516.91;5030511;28;20653;-71
2021/06/23 07:01:06;;;;;;;;;;;;;;;-144.31;100.00;73658.63;5046025;28;19921;-70
2021/06/23 07:03:34;;;;;;;;;;;;;;;-144.31;100.00;73568.81;5040470;28;19924;-70
2021/06/23 07:06:00;;;;;;;;;;;;;;;-144.31;100.00;73443.03;5014600;28;19987;-70
2021/06/23 07:08:25;;;;;;;;;;;;;;;-144.31;100.00;73468.97;5043284;28;20379;-70
2021/06/23 07:10:53;;;;;;;;;;;;;;;-144.31;100.00;73461.00;5055659;28;19920;-70
2021/06/23 07:13:19;;;;;;;;;;;;;;;-144.31;100.00;73482.97;5054135;28;20019;-70
2021/06/23 07:15:44;;;;;;;;;;;;;;;-144.31;100.00;73598.75;5038098;28;20039;-70
2021/06/23 07:18:09;;;;;;;;;;;;;;;-144.31;100.00;73578.78;5013981;28;20453;-70
2021/06/23 07:20:35;;;;;;;;;;;;;;;-144.31;100.00;73540.84;5014060;28;19931;-68
2021/06/23 07:23:00;;;;;;;;;;;;;;;-144.31;100.00;73387.13;4997125;28;20048;-70
2021/06/23 07:25:26;;;;;;;;;;;;;;;-144.31;100.00;73463.00;5036818;28;19960;-70
2021/06/23 07:27:51;;;;;;;;;;;;;;;-144.31;100.00;73449.03;5054600;28;19920;-70
2021/06/23 07:30:17;;;;;;;;;;;;;;;-144.31;100.00;73534.88;5055618;28;19968;-70
2021/06/23 07:38:24;;;;;;;;;;;;;;;-144.31;100.00;73465.00;5053925;28;20341;-68
2021/06/23 07:41:01;;;;;;;;;;;;;;;-144.31;100.00;73393.13;5056048;28;19920;-70
2021/06/23 07:43:27;;;;;;;;;;;;;;;-144.31;100.00;73331.25;5053106;28;19928;-68
2021/06/23 07:45:55;;;;;;;;;;;;;;;-144.31;100.00;73331.25;5038264;28;19917;-70
2021/06/23 07:48:21;;;;;;;;;;;;;;;-144.31;100.00;73335.25;5019203;28;19920;-70
2021/06/23 07:50:51;;;;;;;;;;;;;;;-144.31;100.00;73439.03;5055258;28;19925;-70
2021/06/23 07:53:23;;;;;;;;;;;;;;;-144.31;100.00;73419.06;5049550;28;19920;-70
2021/06/23 07:56:11;;;;;;;;;;;;;;;-144.31;100.00;73343.22;5055970;28;19916;-69
2021/06/23 08:10:11;;;;;;;;;;;;;;;-144.31;100.00;73445.03;5048714;28;19921;-68
2021/06/23 08:12:25;;;;;;;;;;;;;;;-144.31;100.00;73532.88;5028414;28;20401;-69
2021/06/23 08:14:51;;;;;;;;;;;;;;;-144.31;100.00;73604.72;5053903;28;19925;-69
2021/06/23 08:17:16;;;;;;;;;;;;;;;-144.31;100.00;73383.16;5015591;28;20019;-70
2021/06/23 08:19:42;;;;;;;;;;;;;;;-144.31;100.00;73397.13;5009935;28;19955;-68
2021/06/23 08:22:10;;;;;;;;;;;;;;;-144.31;100.00;73443.03;5014135;28;20345;-69
2021/06/23 08:24:36;;;;;;;;;;;;;;;-144.31;100.00;73478.97;5038128;28;19925;-70
2021/06/23 08:27:01;;;;;;;;;;;;;;;-144.31;100.00;73327.25;5055490;28;20779;-69
2021/06/23 08:29:27;;;;;;;;;;;;;;;-144.31;100.00;73265.38;5055114;28;19920;-67
2021/06/23 08:31:52;;;;;;;;;;;;;;;-144.31;100.00;73377.16;5054960;28;19963;-69
2021/06/23 08:34:18;;;;;;;;;;;;;;;-144.31;100.00;73319.28;5055393;28;20034;-69
2021/06/23 08:36:43;;;;;;;;;;;;;;;-144.31;100.00;73225.44;5054312;28;20390;-70
2021/06/23 08:39:08;;;;;;;;;;;;;;;-144.31;100.00;73221.44;5056135;28;19920;-69
2021/06/23 08:41:36;;;;;;;;;;;;;;;-144.31;100.00;73211.47;5056258;28;20029;-70
2021/06/23 08:44:01;;;;;;;;;;;;;;;-144.31;100.00;73129.63;5038326;28;19959;-70
2021/06/23 08:46:27;;;;;;;;;;;;;;;-144.31;100.00;73159.56;5052802;28;19920;-70
2021/06/23 08:48:53;;;;;;;;;;;;;;;-144.31;100.00;73175.53;5039282;28;19916;-70
2021/06/23 08:51:21;;;;;;;;;;;;;;;-144.31;100.00;73199.50;5052215;28;20494;-70
2021/06/23 08:53:49;;;;;;;;;;;;;;;-144.31;100.00;73163.56;5049832;28;19993;-68
2021/06/23 08:56:14;;;;;;;;;;;;;;;-144.31;100.00;73137.63;5049494;28;19939;-70
2021/06/23 08:58:39;;;;;;;;;;;;;;;-144.31;100.00;73137.63;5056779;28;19947;-69
2021/06/23 09:01:05;;;;;;;;;;;;;;;-144.31;100.00;73023.84;5052938;28;20007;-69
2021/06/23 09:03:51;;;;;;;;;;;;;;;-144.31;100.00;73019.84;5056159;28;20421;-67
2021/06/23 09:06:20;;;;;;;;;;;;;;;-144.31;100.00;73139.63;5026807;28;20078;-69
2021/06/23 09:08:45;;;;;;;;;;;;;;;-144.31;100.00;73241.41;5012788;28;19955;-69
2021/06/23 09:11:15;;;;;;;;;;;;;;;-144.31;100.00;73181.53;4984118;28;19947;-70
2021/06/23 09:13:41;;;;;;;;;;;;;;;-144.31;100.00;73049.78;5058110;28;20430;-70
2021/06/23 09:16:06;;;;;;;;;;;;;;;-144.31;100.00;73149.59;5058681;28;19916;-70
2021/06/23 09:18:37;;;;;;;;;;;;;;;-144.31;100.00;72971.94;5057446;28;19924;-70
2021/06/23 09:21:05;;;;;;;;;;;;;;;-144.31;100.00;72894.09;5059121;28;19917;-70
2021/06/23 09:23:39;;;;;;;;;;;;;;;-144.31;100.00;72940.00;5057004;28;19925;-68
2021/06/23 09:26:08;;;;;;;;;;;;;;;-144.31;100.00;73265.38;5039678;28;19979;-69
2021/06/23 09:28:34;;;;;;;;;;;;;;;-144.31;100.00;72977.94;5057162;28;19920;-69
2021/06/23 09:30:59;;;;;;;;;;;;;;;-144.31;100.00;72971.94;5059073;28;19927;-69
2021/06/23 09:33:25;;;;;;;;;;;;;;;-144.31;100.00;72995.91;5056536;28;19920;-69
2021/06/23 09:35:58;;;;;;;;;;;;;;;-144.31;100.00;73001.88;5040120;28;19916;-70
2021/06/23 09:38:36;;;;;;;;;;;;;;;-144.31;100.00;73045.78;5022309;28;20404;-69
2021/06/23 09:41:06;;;;;;;;;;;;;;;-144.31;100.00;73137.63;5051419;28;19920;-70
2021/06/23 09:43:39;;;;;;;;;;;;;;;-144.31;100.00;73029.81;5057559;28;20421;-70
2021/06/23 09:46:12;;;;;;;;;;;;;;;-144.31;100.00;72872.16;5070546;28;19921;-70
2021/06/23 09:48:37;;;;;;;;;;;;;;;-144.31;100.00;73011.88;5056839;28;20410;-69
2021/06/23 09:51:09;;;;;;;;;;;;;;;-144.31;100.00;72953.97;5056028;28;19927;-69
2021/06/23 09:53:35;;;;;;;;;;;;;;;-144.31;100.00;72983.91;5058131;28;19920;-70
2021/06/23 09:56:02;;;;;;;;;;;;;;;-144.31;100.00;72995.91;5014779;28;20592;-68
2021/06/23 09:58:36;;;;;;;;;;;;;;;-144.31;100.00;72882.13;5016239;28;20271;-68
2021/06/23 10:01:02;;;;;;;;;;;;;;;-144.31;100.00;72946.00;5013888;28;19935;-68
2021/06/23 10:03:29;;;;;;;;;;;;;;;-144.31;100.00;72876.13;5018819;28;20177;-69
2021/06/23 10:05:54;;;;;;;;;;;;;;;-144.31;100.00;72778.34;5058179;28;19925;-69
2021/06/23 10:08:22;;;;;;;;;;;;;;;-144.31;100.00;72686.53;5057131;28;19920;-70
2021/06/23 10:10:48;;;;;;;;;;;;;;;-144.31;100.00;72758.38;5057296;28;20003;-70
2021/06/23 10:13:15;;;;;;;;;;;;;;;-144.31;100.00;72696.50;5040393;28;20393;-70
2021/06/23 10:15:41;;;;;;;;;;;;;;;-144.31;100.00;72870.16;5038397;28;20074;-70
2021/06/23 10:18:07;;;;;;;;;;;;;;;-144.31;100.00;72856.19;5056786;28;19921;-70
2021/06/23 10:20:33;;;;;;;;;;;;;;;-144.31;100.00;72942.00;5023297;28;19920;-70
2021/06/23 10:22:58;;;;;;;;;;;;;;;-144.31;100.00;72820.25;5056690;28;19931;-70
2021/06/23 10:25:24;;;;;;;;;;;;;;;-144.31;100.00;72790.31;5039254;28;20010;-69
2021/06/23 10:27:50;;;;;;;;;;;;;;;-144.31;100.00;72944.00;5037717;28;19987;-69
2021/06/23 10:30:16;;;;;;;;;;;;;;;-144.31;100.00;72694.50;5057834;28;20441;-70
2021/06/23 10:32:42;;;;;;;;;;;;;;;-144.31;100.00;72762.38;5036886;28;19985;-70
2021/06/23 10:35:09;;;;;;;;;;;;;;;-144.31;100.00;72904.09;5040655;28;19923;-70
2021/06/23 10:37:36;;;;;;;;;;;;;;;-144.31;100.00;72916.06;5050988;28;20255;-69
2021/06/23 10:40:06;;;;;;;;;;;;;;;-144.31;100.00;73081.72;5036256;28;20061;-70
2021/06/23 10:42:32;;;;;;;;;;;;;;;-144.31;100.00;73057.78;5050399;28;19920;-70
2021/06/23 10:44:57;;;;;;;;;;;;;;;-144.31;100.00;72993.91;5032183;28;19927;-69
2021/06/23 10:47:29;;;;;;;;;;;;;;;-144.31;100.00;72987.91;5058063;28;20007;-69
2021/06/23 10:49:54;;;;;;;;;;;;;;;-144.31;100.00;73025.84;5066259;28;20006;-70
2021/06/23 10:52:20;;;;;;;;;;;;;;;-144.31;100.00;72965.97;5070152;28;19952;-70
2021/06/23 10:54:45;;;;;;;;;;;;;;;-144.31;100.00;72908.06;5058422;28;20306;-70
2021/06/23 10:57:37;;;;;;;;;;;;;;;-144.31;100.00;72902.09;5039546;28;19974;-70
2021/06/23 11:00:27;;;;;;;;;;;;;;;-144.31;100.00;73033.81;5037575;28;19920;-71
2021/06/23 11:03:10;;;;;;;;;;;;;;;-144.31;100.00;72950.00;5037285;28;20312;-71
2021/06/23 11:05:43;;;;;;;;;;;;;;;-144.31;100.00;72824.25;5055335;28;19978;-71
2021/06/23 11:08:26;;;;;;;;;;;;;;;-144.31;100.00;72638.63;5052107;28;19928;-71
2021/06/23 11:10:52;;;;;;;;;;;;;;;-144.31;100.00;72716.47;5040084;28;20003;-70
2021/06/23 11:13:24;;;;;;;;;;;;;;;-144.31;100.00;72670.56;5058836;28;20027;-70
2021/06/23 11:15:51;;;;;;;;;;;;;;;-144.31;100.00;72486.94;5057041;28;19924;-70
2021/06/23 11:18:34;;;;;;;;;;;;;;;-144.31;100.00;72554.78;5049724;28;20384;-70
2021/06/23 11:21:06;;;;;;;;;;;;;;;-144.31;100.00;72570.75;5045941;28;19921;-70
2021/06/23 11:23:45;;;;;;;;;;;;;;;-144.31;100.00;72638.63;5040872;28;19975;-71
2021/06/23 11:26:22;;;;;;;;;;;;;;;-144.31;100.00;72692.50;5040648;28;20370;-71
2021/06/23 11:28:49;;;;;;;;;;;;;;;-144.31;100.00;72890.09;5052999;28;19974;-70
2021/06/23 11:31:17;;;;;;;;;;;;;;;-144.31;100.00;72997.91;5059644;28;19916;-71
2021/06/23 11:33:43;;;;;;;;;;;;;;;-144.31;100.00;72989.91;5017925;28;19931;-70
2021/06/23 11:36:20;;;;;;;;;;;;;;;-144.31;100.00;72848.19;5041537;28;19990;-71
2021/06/23 11:38:47;;;;;;;;;;;;;;;-144.31;100.00;72936.00;5039739;28;19924;-71
2021/06/23 11:41:13;;;;;;;;;;;;;;;-144.31;100.00;72904.09;5059524;28;20363;-70
2021/06/23 11:43:38;;;;;;;;;;;;;;;-144.31;100.00;72754.38;5038680;28;19920;-71
2021/06/23 11:46:04;;;;;;;;;;;;;;;-144.31;100.00;72804.28;5041026;28;19920;-71
2021/06/23 11:48:30;;;;;;;;;;;;;;;-144.31;100.00;72730.44;5038658;28;19917;-71
2021/06/23 11:50:55;;;;;;;;;;;;;;;-144.31;100.00;72890.09;5059866;28;19924;-71
2021/06/23 11:53:21;;;;;;;;;;;;;;;-144.31;100.00;72848.19;5056610;28;19917;-71
2021/06/23 11:55:48;;;;;;;;;;;;;;;-144.31;100.00;72916.06;5041310;28;20201;-71
2021/06/23 11:58:13;;;;;;;;;;;;;;;-144.31;100.00;72878.13;5057156;28;20023;-71
2021/06/23 12:00:39;;;;;;;;;;;;;;;-144.31;100.00;72948.00;5058876;28;20007;-72
2021/06/23 12:03:09;;;;;;;;;;;;;;;-144.31;100.00;72784.31;5056778;28;19932;-70
2021/06/23 12:05:35;;;;;;;;;;;;;;;-144.31;100.00;72846.19;5058590;28;19920;-70
2021/06/23 12:08:00;;;;;;;;;;;;;;;-144.31;100.00;72840.22;5060623;28;20525;-70
2021/06/23 12:10:27;;;;;;;;;;;;;;;-144.31;100.00;72886.13;5057153;28;19967;-71
2021/06/23 12:12:52;;;;;;;;;;;;;;;-144.31;100.00;72860.16;5057209;28;19927;-71
2021/06/23 12:15:22;;;;;;;;;;;;;;;-144.31;95.62;72381.16;5055581;28;19920;-71
2021/06/23 12:17:48;;;;;;;;;;;;;;;-144.31;67.94;72149.66;5058801;28;19970;-71
2021/06/23 12:20:14;;;;;;;;;;;;;;;-144.31;72.82;72041.91;5057903;28;19928;-72
2021/06/23 12:22:40;;;;;;;;;;;;;;;-144.31;87.46;71812.44;5040773;28;19913;-71
2021/06/23 12:25:07;;;;;;;;;;;;;;;-144.31;84.21;71565.00;5056486;28;19991;-71
2021/06/23 12:27:32;;;;;;;;;;;;;;;-144.31;91.16;72205.53;5046938;28;20011;-71
2021/06/23 12:29:57;;;;;;;;;;;;;;;-144.31;97.33;72347.25;5046614;28;19985;-71
2021/06/23 12:32:23;;;;;;;;;;;;;;;-144.31;94.85;72013.97;5053830;28;19927;-72
2021/06/23 12:34:49;;;;;;;;;;;;;;;-144.31;93.63;72129.72;5055817;28;19920;-71
2021/06/23 12:37:15;;;;;;;;;;;;;;;-144.31;97.30;72514.88;5056695;28;19924;-71
2021/06/23 12:39:40;;;;;;;;;;;;;;;-144.31;100.00;72770.34;5041206;28;19916;-71
2021/06/23 12:42:06;;;;;;;;;;;;;;;-144.31;100.00;72532.84;5055958;28;19925;-71
2021/06/23 12:44:31;;;;;;;;;;;;;;;-144.31;100.00;72636.63;5052360;28;19929;-70
2021/06/23 12:46:57;;;;;;;;;;;;;;;-144.31;100.00;72558.78;5044165;28;19928;-71